createdAt,value
2019-04-05T00:01:42.845Z,20.37
2019-04-05T00:04:09.119Z,22.43
2019-04-05T00:06:35.389Z,21.13
2019-04-05T00:09:01.634Z,19.40
2019-04-05T00:11:28.012Z,21.30
2019-04-05T00:13:54.263Z,18.67
2019-04-05T00:16:20.505Z,21.43
2019-04-05T00:18:48.769Z,16.83
2019-04-05T00:21:15.139Z,24.00
2019-04-05T00:23:41.484Z,19.63
2019-04-05T00:26:08.027Z,18.60
2019-04-05T00:28:34.267Z,24.13
2019-04-05T00:31:00.528Z,22.60
2019-04-05T00:33:26.807Z,24.93
2019-04-05T00:35:53.077Z,22.40
2019-04-05T00:38:19.329Z,17.27
2019-04-05T00:40:45.974Z,17.93
2019-04-05T00:43:12.221Z,20.57
2019-04-05T00:45:38.522Z,20.93
2019-04-05T00:48:04.786Z,22.57
2019-04-05T00:50:31.061Z,23.07
2019-04-05T00:52:57.344Z,22.47
2019-04-05T00:55:23.714Z,17.93
2019-04-05T00:57:50.035Z,26.67
2019-04-05T01:00:17.378Z,20.03
2019-04-05T01:02:43.630Z,23.37
2019-04-05T01:05:09.982Z,21.97
2019-04-05T01:07:36.251Z,18.33
2019-04-05T01:10:04.029Z,19.50
2019-04-05T01:12:32.014Z,20.47
2019-04-05T01:14:58.496Z,17.87
2019-04-05T01:17:25.428Z,24.20
2019-04-05T01:19:51.820Z,23.87
2019-04-05T01:22:18.193Z,19.20
2019-04-05T01:24:44.444Z,26.30
2019-04-05T01:27:11.339Z,22.37
2019-04-05T01:29:37.579Z,18.63
2019-04-05T01:32:03.825Z,20.00
2019-04-05T01:34:30.076Z,21.80
2019-04-05T01:36:56.321Z,22.23
2019-04-05T01:39:22.599Z,20.33
2019-04-05T01:41:48.883Z,21.37
2019-04-05T01:44:15.397Z,25.37
2019-04-05T01:46:41.682Z,22.57
2019-04-05T01:49:07.931Z,21.60
2019-04-05T01:51:34.193Z,21.87
2019-04-05T01:54:00.475Z,19.87
2019-04-05T01:56:26.753Z,19.77
2019-04-05T01:58:52.996Z,24.23
2019-04-05T02:01:19.267Z,22.17
2019-04-05T02:03:45.508Z,27.90
2019-04-05T02:06:11.789Z,30.03
2019-04-05T02:08:38.070Z,24.87
2019-04-05T02:11:04.362Z,23.30
2019-04-05T02:13:30.640Z,21.87
2019-04-05T02:16:06.282Z,21.43
2019-04-05T02:18:26.654Z,21.80
2019-04-05T02:20:52.980Z,22.33
2019-04-05T02:23:19.232Z,23.07
2019-04-05T02:25:45.482Z,23.93
2019-04-05T02:28:11.732Z,27.53
2019-04-05T02:30:38.123Z,29.73
2019-04-05T02:33:04.368Z,21.00
2019-04-05T02:35:30.617Z,24.87
2019-04-05T02:37:56.863Z,26.40
2019-04-05T02:40:23.107Z,29.83
2019-04-05T02:42:49.984Z,27.23
2019-04-05T02:45:17.055Z,25.73
2019-04-05T02:47:56.237Z,27.90
2019-04-05T02:50:23.829Z,25.93
2019-04-05T02:52:50.110Z,21.57
2019-04-05T02:55:16.376Z,26.80
2019-04-05T02:57:42.620Z,30.77
2019-04-05T03:00:08.901Z,25.30
2019-04-05T03:02:35.139Z,23.20
2019-04-05T03:05:01.399Z,23.43
2019-04-05T03:07:27.668Z,29.60
2019-04-05T03:09:54.321Z,27.77
2019-04-05T03:12:20.580Z,31.70
2019-04-05T03:14:46.860Z,23.33
2019-04-05T03:17:13.405Z,27.50
2019-04-05T03:19:39.883Z,23.77
2019-04-05T03:22:08.966Z,25.90
2019-04-05T03:24:37.040Z,25.23
2019-04-05T03:27:06.414Z,39.30
2019-04-05T03:29:32.697Z,30.27
2019-04-05T03:31:58.976Z,30.70
2019-04-05T03:34:25.246Z,27.57
2019-04-05T03:36:52.033Z,26.73
2019-04-05T03:39:18.448Z,24.83
2019-04-05T03:41:44.721Z,25.20
2019-04-05T03:44:11.004Z,26.03
2019-04-05T03:46:37.288Z,27.60
2019-04-05T03:49:03.531Z,24.90
2019-04-05T03:51:30.235Z,25.53
2019-04-05T03:53:56.482Z,29.23
2019-04-05T03:56:22.757Z,26.87
2019-04-05T03:58:49.623Z,31.83
2019-04-05T04:01:17.071Z,32.40
2019-04-05T04:03:43.512Z,30.43
2019-04-05T04:06:09.806Z,26.10
2019-04-05T04:08:35.976Z,25.70
2019-04-05T04:11:02.252Z,26.97
2019-04-05T04:13:28.547Z,28.03
2019-04-05T04:15:54.773Z,29.70
2019-04-05T04:18:21.071Z,28.10
2019-04-05T04:20:49.337Z,29.37
2019-04-05T04:23:15.645Z,31.77
2019-04-05T04:25:42.038Z,28.90
2019-04-05T04:28:08.569Z,28.13
2019-04-05T04:30:34.831Z,28.13
2019-04-05T04:33:02.424Z,33.07
2019-04-05T04:35:28.740Z,28.03
2019-04-05T04:37:54.996Z,28.63
2019-04-05T04:40:21.280Z,33.70
2019-04-05T04:42:47.723Z,29.03
2019-04-05T04:45:24.278Z,30.93
2019-04-05T04:47:50.526Z,31.93
2019-04-05T04:50:16.921Z,29.23
2019-04-05T04:52:43.196Z,33.77
2019-04-05T04:55:11.370Z,29.27
2019-04-05T04:57:37.625Z,29.00
2019-04-05T05:00:03.981Z,32.50
2019-04-05T05:02:30.265Z,26.47
2019-04-05T05:04:56.501Z,28.53
2019-04-05T05:07:24.792Z,31.47
2019-04-05T05:09:51.496Z,37.77
2019-04-05T05:12:17.745Z,31.00
2019-04-05T05:14:44.030Z,30.27
2019-04-05T05:17:10.272Z,27.40
2019-04-05T05:19:43.442Z,27.77
2019-04-05T05:22:09.715Z,26.17
2019-04-05T05:24:35.992Z,31.13
2019-04-05T05:27:02.273Z,33.57
2019-04-05T05:29:28.554Z,28.93
2019-04-05T05:31:54.807Z,29.87
2019-04-05T05:34:21.145Z,31.00
2019-04-05T05:36:47.593Z,35.77
2019-04-05T05:39:13.843Z,30.93
2019-04-05T05:41:40.491Z,30.03
2019-04-05T05:44:06.773Z,26.53
2019-04-05T05:46:33.043Z,29.57
2019-04-05T05:48:59.323Z,29.60
2019-04-05T05:51:25.573Z,39.00
2019-04-05T05:53:52.931Z,26.63
2019-04-05T05:56:19.428Z,29.53
2019-04-05T05:58:45.678Z,31.97
2019-04-05T06:01:11.927Z,26.20
2019-04-05T06:03:38.174Z,28.97
2019-04-05T06:06:04.991Z,29.57
2019-04-05T06:08:31.304Z,29.53
2019-04-05T06:10:57.573Z,31.73
2019-04-05T06:13:23.836Z,32.50
2019-04-05T06:16:00.609Z,27.87
2019-04-05T06:18:26.986Z,29.03
2019-04-05T06:20:53.226Z,27.33
2019-04-05T06:25:48.431Z,25.57
2019-04-05T06:28:14.936Z,29.50
2019-04-05T06:30:41.179Z,26.67
2019-04-05T06:33:07.461Z,26.93
2019-04-05T06:35:33.715Z,32.63
2019-04-05T06:35:39.524Z,31.27
2019-04-05T06:37:59.992Z,32.77
2019-04-05T06:40:26.276Z,38.73
2019-04-05T06:42:52.636Z,33.47
2019-04-05T06:45:18.997Z,28.97
2019-04-05T06:47:45.298Z,36.83
2019-04-05T06:50:11.574Z,37.53
2019-04-05T06:52:37.822Z,37.20
2019-04-05T06:55:04.661Z,32.90
2019-04-05T06:57:30.960Z,44.13
2019-04-05T06:59:57.224Z,35.13
2019-04-05T07:02:23.472Z,29.80
2019-04-05T07:04:49.719Z,33.70
2019-04-05T07:07:17.873Z,29.60
2019-04-05T07:09:44.272Z,29.57
2019-04-05T07:12:10.510Z,31.93
2019-04-05T07:14:36.771Z,33.57
2019-04-05T07:17:03.023Z,30.10
2019-04-05T07:19:29.264Z,29.63
2019-04-05T07:21:55.775Z,34.87
2019-04-05T07:24:22.090Z,29.27
2019-04-05T07:26:48.418Z,29.03
2019-04-05T07:29:14.662Z,28.03
2019-04-05T07:31:40.972Z,27.03
2019-04-05T07:34:07.262Z,25.10
2019-04-05T07:36:33.506Z,31.07
2019-04-05T07:38:59.807Z,30.00
2019-04-05T07:41:26.154Z,31.47
2019-04-05T07:43:52.432Z,30.20
2019-04-05T07:46:18.705Z,34.57
2019-04-05T07:48:45.557Z,26.00
2019-04-05T07:51:12.219Z,35.37
2019-04-05T07:53:38.639Z,31.63
2019-04-05T07:56:04.892Z,33.20
2019-04-05T07:58:31.405Z,32.37
2019-04-05T08:00:57.665Z,29.43
2019-04-05T08:03:23.906Z,36.33
2019-04-05T08:05:50.412Z,30.90
2019-04-05T08:08:40.247Z,35.83
2019-04-05T08:11:06.515Z,41.83
2019-04-05T08:13:33.388Z,50.27
2019-04-05T08:16:01.331Z,49.23
2019-04-05T08:18:27.812Z,51.40
2019-04-05T08:20:54.053Z,51.57
2019-04-05T08:23:20.587Z,54.90
2019-04-05T08:25:46.823Z,62.37
2019-04-05T08:28:13.192Z,61.40
2019-04-05T08:30:46.621Z,67.23
2019-04-05T08:33:12.910Z,60.47
2019-04-05T08:35:39.206Z,60.10
2019-04-05T08:38:05.452Z,55.83
2019-04-05T08:40:33.090Z,59.83
2019-04-05T08:42:59.586Z,63.57
2019-04-05T08:45:25.861Z,57.93
2019-04-05T08:47:52.152Z,70.27
2019-04-05T08:50:18.403Z,68.73
2019-04-05T08:52:44.748Z,69.53
2019-04-05T08:55:11.011Z,69.63
2019-04-05T08:57:37.524Z,59.67
2019-04-05T09:00:06.007Z,64.47
2019-04-05T09:02:32.249Z,66.33
2019-04-05T09:04:58.638Z,63.80
2019-04-05T09:07:24.913Z,72.43
2019-04-05T09:09:51.191Z,67.53
2019-04-05T09:12:17.436Z,77.07
2019-04-05T09:14:43.705Z,69.03
2019-04-05T09:17:09.976Z,70.93
2019-04-05T09:19:36.548Z,75.47
2019-04-05T09:22:02.890Z,76.37
2019-04-05T09:24:29.162Z,71.07
2019-04-05T09:26:55.448Z,71.87
2019-04-05T09:29:21.745Z,80.43
2019-04-05T09:31:48.293Z,75.00
2019-04-05T09:34:14.568Z,81.37
2019-04-05T09:36:50.274Z,71.77
2019-04-05T09:39:16.527Z,77.50
2019-04-05T09:41:42.797Z,85.50
2019-04-05T09:44:09.041Z,72.27
2019-04-05T09:46:47.933Z,80.80
2019-04-05T09:49:09.638Z,82.90
2019-04-05T09:51:35.912Z,84.03
2019-04-05T09:54:02.189Z,86.30
2019-04-05T09:56:28.478Z,84.27
2019-04-05T09:58:54.745Z,89.33
2019-04-05T10:01:20.990Z,82.33
2019-04-05T10:03:47.263Z,83.53
2019-04-05T10:06:13.531Z,83.87
2019-04-05T10:08:39.917Z,87.13
2019-04-05T10:11:07.389Z,88.43
2019-04-05T10:13:33.664Z,90.07
2019-04-05T10:15:59.946Z,88.90
2019-04-05T10:18:26.204Z,87.30
2019-04-05T10:20:52.472Z,84.00
2019-04-05T10:23:18.708Z,88.20
2019-04-05T10:25:45.259Z,86.73
2019-04-05T10:28:11.538Z,91.03
2019-04-05T10:30:37.786Z,94.80
2019-04-05T10:33:04.072Z,98.07
2019-04-05T10:35:31.398Z,91.33
2019-04-05T10:37:58.462Z,91.83
2019-04-05T10:40:24.922Z,99.60
2019-04-05T10:42:51.207Z,100.10
2019-04-05T10:45:17.569Z,97.93
2019-04-05T10:47:43.852Z,97.67
2019-04-05T10:50:11.523Z,97.47
2019-04-05T10:52:37.762Z,106.57
2019-04-05T10:55:04.350Z,104.17
2019-04-05T10:57:30.724Z,107.10
2019-04-05T10:59:56.989Z,105.20
2019-04-05T11:02:23.242Z,104.60
2019-04-05T11:04:49.541Z,95.73
2019-04-05T11:07:15.812Z,96.10
2019-04-05T11:09:42.152Z,101.10
2019-04-05T11:12:08.697Z,99.30
2019-04-05T11:14:35.173Z,91.57
2019-04-05T11:17:04.405Z,95.40
2019-04-05T11:19:30.257Z,93.00
2019-04-05T11:21:57.862Z,101.97
2019-04-05T11:24:24.104Z,95.70
2019-04-05T11:26:50.345Z,102.50
2019-04-05T11:29:16.622Z,98.77
2019-04-05T11:31:55.930Z,98.93
2019-04-05T11:34:11.336Z,94.83
2019-04-05T11:36:38.378Z,99.23
2019-04-05T11:39:07.364Z,95.30
2019-04-05T11:41:35.197Z,90.37
2019-04-05T11:44:01.485Z,93.13
2019-04-05T11:46:28.842Z,91.83
2019-04-05T11:48:55.080Z,99.07
2019-04-05T11:51:21.382Z,95.57
2019-04-05T11:53:47.660Z,93.53
2019-04-05T11:56:15.255Z,94.47
2019-04-05T11:58:48.490Z,92.63
2019-04-05T12:01:15.431Z,93.20
2019-04-05T12:03:41.696Z,89.80
2019-04-05T12:06:08.266Z,88.53
2019-04-05T12:08:34.540Z,89.83
2019-04-05T12:11:00.828Z,89.27
2019-04-05T12:13:27.094Z,96.07
2019-04-05T12:15:53.343Z,88.03
2019-04-05T12:18:19.901Z,89.90
2019-04-05T12:20:52.347Z,89.97
2019-04-05T12:23:14.708Z,89.53
2019-04-05T12:25:41.034Z,83.10
2019-04-05T12:28:10.473Z,87.20
2019-04-05T12:30:36.739Z,91.37
2019-04-05T12:33:13.085Z,83.63
2019-04-05T12:35:31.267Z,77.77
2019-04-05T12:37:57.507Z,77.47
2019-04-05T12:40:23.769Z,79.70
2019-04-05T12:42:53.011Z,85.67
2019-04-05T12:45:19.337Z,77.77
2019-04-05T12:47:46.165Z,76.27
2019-04-05T12:50:14.494Z,73.30
2019-04-05T12:52:40.818Z,73.43
2019-04-05T12:55:07.086Z,70.73
2019-04-05T12:57:33.403Z,70.83
2019-04-05T12:59:59.668Z,64.50
2019-04-05T13:02:33.245Z,65.80
2019-04-05T13:04:54.124Z,68.03
2019-04-05T13:07:20.707Z,71.47
2019-04-05T13:09:48.567Z,62.20
2019-04-05T13:12:14.924Z,68.37
2019-04-05T13:14:41.314Z,61.43
2019-04-05T13:17:07.823Z,68.23
2019-04-05T13:19:34.096Z,60.90
2019-04-05T13:22:02.941Z,58.97
2019-04-05T13:24:28.835Z,62.93
2019-04-05T13:26:55.137Z,58.30
2019-04-05T13:29:21.370Z,59.57
2019-04-05T13:31:48.614Z,63.10
2019-04-05T13:34:21.445Z,63.00
2019-04-05T13:36:47.731Z,61.47
2019-04-05T13:39:13.991Z,58.33
2019-04-05T13:41:40.348Z,59.83
2019-04-05T13:44:06.597Z,61.67
2019-04-05T13:46:32.956Z,63.30
2019-04-05T13:48:59.244Z,62.33
2019-04-05T13:51:28.086Z,62.27
2019-04-05T13:53:53.958Z,61.70
2019-04-05T13:56:21.040Z,58.97
2019-04-05T13:58:48.069Z,63.00
2019-04-05T14:01:14.334Z,54.57
2019-04-05T14:03:40.573Z,60.73
2019-04-05T14:06:06.900Z,56.17
2019-04-05T14:08:33.241Z,58.73
2019-04-05T14:11:00.799Z,59.17
2019-04-05T14:13:28.674Z,60.73
2019-04-05T14:15:55.248Z,57.70
2019-04-05T14:18:21.546Z,57.93
2019-04-05T14:20:49.976Z,57.63
2019-04-05T14:23:15.971Z,61.03
2019-04-05T14:25:44.379Z,56.77
2019-04-05T14:28:10.617Z,58.87
2019-04-05T14:30:36.859Z,55.10
2019-04-05T14:33:03.598Z,55.67
2019-04-05T14:35:29.839Z,56.77
2019-04-05T14:37:56.087Z,56.73
2019-04-05T14:40:22.351Z,55.00
2019-04-05T14:42:48.707Z,58.30
2019-04-05T14:45:15.091Z,55.37
2019-04-05T14:47:41.751Z,54.70
2019-04-05T14:50:11.031Z,57.13
2019-04-05T14:52:37.404Z,54.93
2019-04-05T14:55:06.787Z,57.30
2019-04-05T14:57:35.518Z,58.07
2019-04-05T15:00:01.372Z,54.83
2019-04-05T15:02:27.635Z,61.97
2019-04-05T15:04:53.880Z,57.67
2019-04-05T15:07:20.845Z,54.90
2019-04-05T15:09:47.900Z,59.23
2019-04-05T15:12:14.150Z,55.27
2019-04-05T15:14:40.394Z,56.80
2019-04-05T15:17:06.632Z,51.77
2019-04-05T15:19:32.884Z,53.43
2019-04-05T15:22:05.708Z,53.17
2019-04-05T15:24:27.340Z,58.10
2019-04-05T15:26:53.899Z,62.03
2019-04-05T15:29:20.165Z,54.80
2019-04-05T15:31:46.425Z,56.93
2019-04-05T15:34:12.698Z,61.40
2019-04-05T15:36:38.937Z,59.03
2019-04-05T15:39:07.525Z,57.23
2019-04-05T15:41:34.272Z,56.73
2019-04-05T15:44:00.529Z,58.13
2019-04-05T15:46:27.053Z,57.57
2019-04-05T15:48:53.452Z,58.87
2019-04-05T15:51:19.710Z,59.13
2019-04-05T15:53:45.981Z,55.10
2019-04-05T15:56:12.236Z,54.73
2019-04-05T15:58:38.495Z,59.87
2019-04-05T16:01:05.225Z,59.07
2019-04-05T16:03:32.334Z,58.70
2019-04-05T16:05:59.450Z,57.83
2019-04-05T16:08:25.821Z,60.63
2019-04-05T16:10:52.092Z,59.47
2019-04-05T16:13:18.411Z,61.80
2019-04-05T16:15:44.635Z,63.90
2019-04-05T16:18:11.045Z,62.43
2019-04-05T16:20:37.349Z,59.40
2019-04-05T16:23:03.607Z,62.00
2019-04-05T16:25:29.880Z,66.83
2019-04-05T16:27:56.312Z,66.87
2019-04-05T16:30:22.825Z,60.13
2019-04-05T16:32:49.176Z,58.53
2019-04-05T16:35:15.451Z,64.13
2019-04-05T16:37:41.721Z,58.37
2019-04-05T16:40:08.062Z,69.40
2019-04-05T16:42:34.312Z,64.67
2019-04-05T16:45:00.597Z,60.83
2019-04-05T16:47:26.838Z,59.83
2019-04-05T16:49:53.137Z,60.53
2019-04-05T16:52:19.385Z,61.13
2019-04-05T16:54:45.675Z,66.07
2019-04-05T16:57:12.447Z,65.37
2019-04-05T16:59:38.706Z,67.37
2019-04-05T17:02:04.997Z,63.90
2019-04-05T17:04:31.227Z,63.33
2019-04-05T17:06:57.503Z,73.80
2019-04-05T17:09:23.805Z,68.83
2019-04-05T17:11:50.123Z,70.70
2019-04-05T17:14:16.496Z,68.63
2019-04-05T17:16:42.729Z,70.13
2019-04-05T17:19:09.015Z,71.70
2019-04-05T17:21:35.389Z,71.73
2019-04-05T17:24:01.672Z,65.37
2019-04-05T17:26:27.937Z,73.07
2019-04-05T17:28:54.260Z,66.17
2019-04-05T17:31:20.505Z,73.77
2019-04-05T17:33:46.788Z,68.40
2019-04-05T17:36:13.096Z,66.90
2019-04-05T17:38:39.372Z,64.23
2019-04-05T17:41:05.694Z,64.03
2019-04-05T17:43:31.931Z,80.50
2019-04-05T17:45:58.630Z,63.17
2019-04-05T17:48:24.887Z,60.93
2019-04-05T17:50:51.132Z,66.63
2019-04-05T17:53:17.453Z,62.87
2019-04-05T17:55:43.748Z,63.33
2019-04-05T17:58:10.234Z,64.63
2019-04-05T18:00:37.097Z,70.43
2019-04-05T18:03:03.669Z,64.97
2019-04-05T18:05:29.952Z,65.17
2019-04-05T18:07:56.227Z,63.97
2019-04-05T18:10:22.483Z,69.33
2019-04-05T18:12:48.756Z,64.77
2019-04-05T18:15:15.054Z,68.07
2019-04-05T18:17:41.363Z,63.80
2019-04-05T18:20:09.752Z,62.17
2019-04-05T18:22:35.864Z,73.90
2019-04-05T18:25:03.992Z,63.10
2019-04-05T18:27:30.223Z,59.33
2019-04-05T18:29:56.485Z,70.20
2019-04-05T18:32:22.756Z,67.83
2019-04-05T18:34:48.995Z,65.07
2019-04-05T18:37:15.237Z,68.87
2019-04-05T18:39:41.510Z,74.57
2019-04-05T18:42:07.779Z,68.77
2019-04-05T18:44:34.036Z,64.67
2019-04-05T18:47:00.336Z,66.20
2019-04-05T18:49:26.674Z,64.87
2019-04-05T18:51:52.958Z,67.63
2019-04-05T18:54:19.260Z,75.57
2019-04-05T18:56:45.601Z,75.43
2019-04-05T18:59:11.929Z,71.90
2019-04-05T19:01:39.392Z,71.37
2019-04-05T19:04:05.818Z,70.47
2019-04-05T19:06:32.200Z,73.13
2019-04-05T19:08:58.487Z,68.87
2019-04-05T19:11:24.775Z,64.03
2019-04-05T19:14:00.867Z,67.90
2019-04-05T19:16:19.430Z,63.67
2019-04-05T19:18:45.727Z,75.00
2019-04-05T19:21:14.193Z,70.97
2019-04-05T19:23:50.382Z,72.83
2019-04-05T19:26:09.349Z,69.17
2019-04-05T19:28:35.668Z,67.43
2019-04-05T19:50:53.885Z,64.97
2019-04-05T19:53:20.548Z,68.03
2019-04-05T19:55:46.888Z,67.53
2019-04-05T19:58:15.925Z,71.03
2019-04-05T20:00:46.625Z,64.70
2019-04-05T20:03:16.237Z,66.13
2019-04-05T20:05:42.810Z,63.13
2019-04-05T20:08:11.689Z,63.43
2019-04-05T20:10:37.926Z,63.73
2019-04-05T20:13:06.221Z,64.90
2019-04-05T20:15:35.901Z,67.67
2019-04-05T20:18:02.271Z,70.03
2019-04-05T20:20:28.797Z,67.90
2019-04-05T20:22:55.448Z,63.17
2019-04-05T20:25:21.774Z,69.20
2019-04-05T20:27:48.894Z,67.23
2019-04-05T20:30:16.081Z,69.67
2019-04-05T20:32:42.418Z,63.00
2019-04-05T20:35:08.686Z,67.57
2019-04-05T20:37:41.126Z,61.63
2019-04-05T20:40:07.509Z,65.90
2019-04-05T20:42:35.724Z,66.10
2019-04-05T20:45:02.110Z,65.70
2019-04-05T20:47:29.075Z,67.00
2019-04-05T20:49:55.880Z,66.83
2019-04-05T20:52:26.185Z,69.17
2019-04-05T20:54:55.359Z,60.47
2019-04-05T20:57:21.619Z,61.57
2019-04-05T20:59:47.960Z,63.17
2019-04-05T21:02:16.290Z,61.63
2019-04-05T21:04:43.775Z,65.23
2019-04-05T21:07:11.269Z,68.37
2019-04-05T21:09:37.562Z,65.57
2019-04-05T21:12:06.737Z,67.13
2019-04-05T21:14:36.177Z,62.33
2019-04-05T21:17:02.666Z,58.03
2019-04-05T21:19:30.696Z,67.77
2019-04-05T21:21:57.194Z,60.10
2019-04-05T21:24:23.436Z,62.03
2019-04-05T21:26:50.419Z,68.20
2019-04-05T21:29:16.726Z,65.43
2019-04-05T21:31:43.579Z,67.77
2019-04-05T21:34:10.808Z,64.00
2019-04-05T21:36:37.059Z,63.70
2019-04-05T21:39:05.843Z,61.33
2019-04-05T21:41:32.916Z,63.07
2019-04-05T21:43:59.198Z,64.93
2019-04-05T21:46:25.472Z,64.77
2019-04-05T21:48:51.711Z,66.10
2019-04-05T21:51:17.964Z,66.80
2019-04-05T21:53:44.352Z,69.20
2019-04-05T21:56:10.593Z,64.63
2019-04-05T21:58:36.879Z,68.00
2019-04-05T22:01:05.074Z,63.97
2019-04-05T22:03:31.345Z,70.47
2019-04-05T22:05:57.593Z,71.10
2019-04-05T22:08:24.067Z,66.33
2019-04-05T22:10:50.340Z,67.87
2019-04-05T22:13:16.595Z,65.43
2019-04-05T22:15:42.977Z,69.87
2019-04-05T22:18:09.248Z,68.10
2019-04-05T22:20:35.707Z,67.43
2019-04-05T22:23:02.205Z,70.03
2019-04-05T22:25:28.475Z,67.67
2019-04-05T22:27:54.837Z,68.10
2019-04-05T22:30:21.076Z,66.27
2019-04-05T22:32:47.329Z,70.87
2019-04-05T22:35:13.581Z,67.87
2019-04-05T22:37:39.847Z,64.03
2019-04-05T22:40:06.178Z,71.43
2019-04-05T22:42:32.554Z,69.53
2019-04-05T22:44:59.041Z,71.10
2019-04-05T22:47:25.422Z,71.63
2019-04-05T22:49:51.704Z,78.20
2019-04-05T22:52:17.984Z,74.57
2019-04-05T22:54:44.226Z,72.93
2019-04-05T22:57:10.811Z,70.53
2019-04-05T22:59:37.037Z,74.33
2019-04-05T23:02:03.874Z,71.13
2019-04-05T23:04:30.147Z,69.60
2019-04-05T23:06:56.686Z,72.90
2019-04-05T23:09:22.919Z,75.93
2019-04-05T23:11:49.256Z,75.60
2019-04-05T23:14:15.533Z,70.70
2019-04-05T23:16:41.814Z,73.77
2019-04-05T23:19:08.055Z,73.13
2019-04-05T23:21:34.305Z,77.30
2019-04-05T23:24:00.853Z,70.87
2019-04-05T23:26:28.877Z,79.77
2019-04-05T23:28:55.317Z,82.17
2019-04-05T23:31:21.637Z,80.27
2019-04-05T23:33:48.009Z,76.57
2019-04-05T23:36:14.283Z,78.40
2019-04-05T23:38:40.537Z,72.30
2019-04-05T23:41:06.810Z,69.37
2019-04-05T23:43:33.097Z,72.33
2019-04-05T23:46:00.756Z,73.43
2019-04-05T23:48:27.003Z,70.40
2019-04-05T23:50:53.539Z,66.57
2019-04-05T23:53:19.777Z,67.07
2019-04-05T23:55:46.070Z,71.03
2019-04-05T23:58:12.305Z,69.37
